Time;durP1;ratioP1;P1;durP2;ratioP2;P2;SDS_P1;SDS_P2;PMS_P1;PMS_P2;Temp;Humidity;BMP_temperature;BMP_pressure;BME280_temperature;BME280_humidity;BME280_pressure;Samples;Min_cycle;Max_cycle;Signal;HPM_P1;HPM_P2
2021/05/30 00:00:08;;;;;;;2.00;1.73;;;10.30;61.70;;;;;;5097720;28;20020;-80
2021/05/30 00:02:36;;;;;;;2.17;1.42;;;10.30;61.80;;;;;;5115707;28;20039;-81
2021/05/30 00:05:28;;;;;;;2.65;1.88;;;10.20;62.20;;;;;;5110566;28;20035;-82
2021/05/30 00:08:09;;;;;;;3.22;1.25;;;10.20;62.50;;;;;;5080756;28;20110;-82
2021/05/30 00:10:38;;;;;;;2.30;1.60;;;10.20;62.40;;;;;;5080378;28;20118;-81
2021/05/30 00:13:08;;;;;;;1.27;1.17;;;10.20;62.40;;;;;;5114048;28;20062;-82
2021/05/30 00:15:34;;;;;;;3.60;1.90;;;10.20;62.60;;;;;;5115183;28;20471;-81
2021/05/30 00:18:00;;;;;;;3.25;1.75;;;10.20;62.70;;;;;;5097101;28;20031;-81
2021/05/30 00:20:27;;;;;;;2.67;1.88;;;10.10;63.00;;;;;;5097291;28;20063;-81
2021/05/30 00:22:55;;;;;;;1.80;1.50;;;10.10;63.30;;;;;;5084316;28;20036;-81
2021/05/30 00:25:24;;;;;;;1.80;1.40;;;10.00;63.50;;;;;;5108912;28;20023;-81
2021/05/30 00:27:49;;;;;;;2.58;1.90;;;10.00;63.40;;;;;;5097108;28;20322;-81
2021/05/30 00:30:22;;;;;;;5.68;1.77;;;10.00;63.40;;;;;;5097356;28;20024;-81
2021/05/30 00:32:48;;;;;;;2.15;1.65;;;10.00;63.50;;;;;;5098066;28;20023;-81
2021/05/30 00:35:14;;;;;;;3.00;1.77;;;10.00;63.50;;;;;;5097183;28;20543;-87
2021/05/30 00:37:39;;;;;;;3.55;1.92;;;10.00;63.40;;;;;;5096741;28;20028;-82
2021/05/30 00:40:12;;;;;;;3.05;1.80;;;10.00;63.50;;;;;;5096789;28;20024;-81
2021/05/30 00:42:39;;;;;;;2.67;1.70;;;9.90;63.60;;;;;;5097269;28;20032;-81
2021/05/30 00:45:07;;;;;;;2.90;1.95;;;9.80;63.80;;;;;;5086696;28;20141;-81
2021/05/30 00:47:34;;;;;;;2.45;1.70;;;9.80;64.20;;;;;;5097161;28;20152;-82
2021/05/30 00:50:00;;;;;;;3.22;1.80;;;9.80;64.30;;;;;;5114566;28;20498;-82
2021/05/30 00:52:34;;;;;;;3.33;2.00;;;9.80;64.30;;;;;;5096832;28;20055;-83
2021/05/30 00:55:33;;;;;;;3.28;1.25;;;9.80;64.60;;;;;;5114968;28;20031;-83
2021/05/30 00:58:42;;;;;;;2.58;1.60;;;9.70;64.70;;;;;;5070207;28;20039;-84
2021/05/30 01:01:34;;;;;;;2.60;1.80;;;9.60;64.90;;;;;;5070874;28;20603;-83
2021/05/30 01:04:00;;;;;;;3.72;1.77;;;9.70;65.00;;;;;;5071688;28;20123;-82
2021/05/30 01:06:27;;;;;;;2.40;1.50;;;9.70;65.00;;;;;;5054127;28;20036;-82
2021/05/30 01:08:53;;;;;;;2.15;1.50;;;9.60;65.10;;;;;;5071674;28;20028;-83
2021/05/30 01:11:26;;;;;;;4.07;1.70;;;9.70;65.20;;;;;;5073925;28;20430;-82
2021/05/30 01:13:56;;;;;;;1.77;1.60;;;9.70;65.20;;;;;;5040571;28;20032;-82
2021/05/30 01:16:28;;;;;;;1.50;1.33;;;9.70;65.00;;;;;;5080424;28;20036;-82
2021/05/30 01:19:00;;;;;;;5.55;1.50;;;9.70;64.90;;;;;;5076296;28;20029;-82
2021/05/30 01:21:29;;;;;;;3.15;1.48;;;9.70;64.90;;;;;;5071811;28;20029;-82
2021/05/30 01:23:57;;;;;;;3.22;1.60;;;9.80;64.80;;;;;;5054565;28;20044;-82
2021/05/30 01:26:28;;;;;;;2.47;1.40;;;9.70;64.90;;;;;;5070929;28;20024;-82
2021/05/30 01:28:59;;;;;;;2.10;1.55;;;9.70;64.70;;;;;;5055572;28;20120;-83
2021/05/30 01:31:25;;;;;;;2.75;1.58;;;9.80;64.70;;;;;;5037869;28;20040;-82
2021/05/30 01:33:50;;;;;;;1.80;1.20;;;9.70;64.90;;;;;;5071460;28;20025;-81
2021/05/30 01:36:17;;;;;;;2.15;1.80;;;9.70;65.10;;;;;;5054763;28;20078;-82
2021/05/30 01:38:43;;;;;;;2.92;1.60;;;9.60;65.30;;;;;;5071262;28;20116;-81
2021/05/30 01:41:15;;;;;;;4.88;1.60;;;9.60;65.40;;;;;;5054325;28;20455;-82
2021/05/30 01:43:46;;;;;;;2.17;1.48;;;9.60;65.60;;;;;;5054201;28;20508;-82
2021/05/30 01:46:15;;;;;;;1.83;1.30;;;9.60;65.70;;;;;;5070802;28;20039;-82
2021/05/30 01:48:51;;;;;;;3.65;1.40;;;9.50;65.90;;;;;;5101080;28;20043;-83
2021/05/30 01:51:20;;;;;;;1.83;1.50;;;9.50;66.10;;;;;;5095451;28;20044;-83
2021/05/30 01:53:54;;;;;;;1.50;1.30;;;9.40;66.10;;;;;;5095530;28;20658;-82
2021/05/30 01:59:07;;;;;;;4.50;1.88;;;9.40;67.10;;;;;;5112985;28;20038;-82
2021/05/30 02:01:34;;;;;;;2.42;1.30;;;9.30;66.90;;;;;;5094998;28;20035;-79
2021/05/30 02:04:05;;;;;;;3.25;1.60;;;9.30;67.20;;;;;;5095314;28;20039;-80
2021/05/30 02:06:32;;;;;;;1.63;1.20;;;9.30;67.30;;;;;;5078670;28;20093;-79
2021/05/30 02:08:58;;;;;;;2.00;1.40;;;9.20;67.70;;;;;;5095129;28;20073;-79
2021/05/30 02:11:27;;;;;;;2.55;1.40;;;9.20;67.90;;;;;;5078375;28;20024;-79
2021/05/30 02:13:52;;;;;;;2.55;1.55;;;9.10;67.80;;;;;;5095354;28;20081;-79
2021/05/30 02:16:20;;;;;;;2.72;1.77;;;9.20;67.70;;;;;;5078239;28;20118;-79
2021/05/30 02:18:45;;;;;;;1.30;1.20;;;9.10;67.90;;;;;;5094676;28;20035;-81
2021/05/30 02:21:12;;;;;;;1.83;1.35;;;9.10;68.10;;;;;;5095005;28;20028;-80
2021/05/30 02:23:37;;;;;;;2.60;1.52;;;9.10;68.00;;;;;;5111920;28;20126;-81
2021/05/30 02:26:04;;;;;;;3.05;1.30;;;9.10;68.10;;;;;;5094958;28;20108;-78
2021/05/30 02:28:31;;;;;;;2.65;1.30;;;9.10;68.10;;;;;;5113309;28;20032;-78
2021/05/30 02:30:56;;;;;;;2.55;1.60;;;9.20;67.90;;;;;;5094928;28;20122;-78
2021/05/30 02:33:23;;;;;;;3.17;1.48;;;9.20;67.80;;;;;;5112083;28;20063;-80
2021/05/30 02:35:49;;;;;;;2.03;1.35;;;9.30;67.70;;;;;;5094794;28;20019;-80
2021/05/30 02:38:15;;;;;;;2.17;1.38;;;9.30;67.50;;;;;;5098273;28;20118;-80
2021/05/30 02:40:40;;;;;;;2.45;1.83;;;9.30;67.20;;;;;;5098867;28;20119;-80
2021/05/30 02:43:06;;;;;;;2.35;1.50;;;9.30;67.00;;;;;;5098729;28;20036;-81
2021/05/30 02:45:33;;;;;;;4.10;1.40;;;9.30;66.70;;;;;;5082185;28;20034;-80
2021/05/30 02:48:00;;;;;;;2.58;1.10;;;9.40;66.70;;;;;;5117249;28;20032;-80
2021/05/30 02:50:27;;;;;;;2.38;1.15;;;9.30;66.70;;;;;;5098610;28;20031;-80
2021/05/30 02:52:53;;;;;;;2.58;1.45;;;9.40;67.00;;;;;;5098715;28;20055;-80
2021/05/30 02:55:19;;;;;;;1.38;1.20;;;9.40;66.70;;;;;;5099097;28;20069;-80
2021/05/30 02:57:44;;;;;;;1.83;1.40;;;9.40;66.50;;;;;;5115214;28;20487;-80
2021/05/30 03:00:11;;;;;;;2.10;1.25;;;9.40;66.70;;;;;;5098678;28;20047;-81
2021/05/30 03:02:37;;;;;;;3.53;2.30;;;9.40;66.70;;;;;;5115921;28;20127;-82
2021/05/30 03:05:05;;;;;;;7.30;4.72;;;9.40;66.70;;;;;;5098520;28;20306;-81
2021/05/30 03:07:31;;;;;;;3.63;2.55;;;9.40;67.50;;;;;;5098702;28;20240;-82
2021/05/30 03:09:57;;;;;;;3.30;2.28;;;9.40;66.60;;;;;;5098563;28;20131;-82
2021/05/30 03:12:22;;;;;;;3.35;2.30;;;9.40;66.60;;;;;;5116939;28;20020;-82
2021/05/30 03:14:48;;;;;;;5.00;1.70;;;9.40;66.60;;;;;;5098308;28;20081;-82
2021/05/30 03:17:15;;;;;;;2.28;1.65;;;9.40;66.60;;;;;;5098492;28;20019;-82
2021/05/30 03:19:42;;;;;;;2.10;1.38;;;9.40;66.40;;;;;;5098104;28;20035;-82
2021/05/30 03:22:08;;;;;;;2.20;1.50;;;9.40;66.40;;;;;;5098379;28;20038;-81
2021/05/30 03:24:33;;;;;;;2.53;1.52;;;9.30;66.50;;;;;;5098311;28;20031;-80
2021/05/30 03:27:01;;;;;;;2.45;1.40;;;9.30;66.60;;;;;;5098351;28;20031;-80
2021/05/30 03:29:26;;;;;;;3.03;1.60;;;9.30;66.60;;;;;;5098261;28;20024;-81
2021/05/30 03:31:52;;;;;;;1.77;1.48;;;9.30;66.50;;;;;;5116470;28;20392;-81
2021/05/30 03:34:18;;;;;;;1.95;1.23;;;9.30;66.70;;;;;;5098289;28;20028;-82
2021/05/30 03:36:47;;;;;;;2.22;1.55;;;9.20;66.70;;;;;;5098060;28;20422;-81
2021/05/30 03:39:14;;;;;;;2.58;1.60;;;9.30;67.00;;;;;;5098283;28;20028;-82
2021/05/30 03:41:52;;;;;;;4.65;1.73;;;9.30;67.00;;;;;;5116259;28;20028;-84
2021/05/30 03:44:32;;;;;;;2.78;1.58;;;9.30;66.80;;;;;;5116158;28;20036;-83
2021/05/30 03:46:59;;;;;;;1.20;1.10;;;9.30;66.90;;;;;;5116329;28;20023;-84
2021/05/30 03:49:53;;;;;;;4.07;1.30;;;9.30;66.90;;;;;;5096854;28;20063;-83
2021/05/30 03:52:23;;;;;;;1.63;1.40;;;9.30;67.00;;;;;;5075768;28;20043;-83
2021/05/30 03:54:49;;;;;;;3.17;1.40;;;9.30;67.00;;;;;;5077113;28;20020;-83
2021/05/30 03:57:16;;;;;;;3.90;1.50;;;9.30;67.00;;;;;;5094654;28;20066;-83
2021/05/30 03:59:43;;;;;;;3.03;1.55;;;9.30;66.90;;;;;;5060991;28;20058;-82
2021/05/30 04:02:09;;;;;;;1.90;1.45;;;9.20;66.70;;;;;;5077435;28;20488;-83
2021/05/30 04:04:34;;;;;;;1.38;1.25;;;9.20;66.70;;;;;;5060439;28;20057;-84
2021/05/30 04:07:04;;;;;;;1.65;1.27;;;9.20;66.90;;;;;;5077585;28;20020;-82
2021/05/30 04:09:32;;;;;;;2.00;1.52;;;9.20;67.10;;;;;;5060678;28;20468;-83
2021/05/30 04:12:03;;;;;;;4.47;1.35;;;9.20;67.00;;;;;;5094159;28;20081;-83
2021/05/30 04:14:49;;;;;;;4.05;1.58;;;9.20;67.10;;;;;;5091627;28;20119;-83
2021/05/30 04:17:25;;;;;;;2.40;1.73;;;9.30;67.00;;;;;;5100763;28;20036;-83
2021/05/30 04:20:16;;;;;;;1.95;1.38;;;9.20;66.80;;;;;;5095995;28;20225;-79
2021/05/30 04:22:42;;;;;;;3.78;1.50;;;9.30;66.90;;;;;;5093847;28;20500;-81
2021/05/30 04:25:10;;;;;;;1.98;1.42;;;9.30;66.90;;;;;;5093664;28;20496;-80
2021/05/30 04:27:38;;;;;;;3.20;1.30;;;9.30;66.90;;;;;;5093529;28;20024;-80
2021/05/30 04:30:06;;;;;;;1.67;1.40;;;9.30;66.80;;;;;;5093772;28;20161;-80
2021/05/30 04:32:34;;;;;;;1.73;1.40;;;9.50;66.70;;;;;;5094900;28;20056;-80
2021/05/30 04:35:03;;;;;;;4.03;1.40;;;9.50;66.40;;;;;;5076787;28;20028;-81
2021/05/30 04:37:28;;;;;;;3.88;1.65;;;9.60;66.10;;;;;;5077164;28;20032;-81
2021/05/30 04:39:54;;;;;;;3.88;2.13;;;9.70;66.10;;;;;;5076320;28;20101;-80
2021/05/30 04:42:20;;;;;;;2.67;1.67;;;9.70;66.00;;;;;;5059645;28;20032;-80
2021/05/30 04:44:46;;;;;;;1.98;1.75;;;9.90;65.80;;;;;;5093342;28;20028;-80
2021/05/30 04:47:12;;;;;;;1.58;1.45;;;9.90;65.20;;;;;;5076546;28;20024;-80
2021/05/30 04:49:39;;;;;;;2.75;1.85;;;10.00;65.10;;;;;;5093713;28;20392;-80
2021/05/30 04:52:09;;;;;;;3.20;1.40;;;10.20;64.80;;;;;;5076282;28;20047;-80
2021/05/30 04:54:39;;;;;;;1.92;1.60;;;10.20;64.00;;;;;;5077584;28;20036;-82
2021/05/30 04:57:17;;;;;;;2.88;1.70;;;10.30;63.90;;;;;;5094408;28;20024;-82
2021/05/30 05:00:08;;;;;;;2.03;1.52;;;10.40;63.40;;;;;;5089481;28;20035;-84
2021/05/30 05:03:01;;;;;;;5.25;1.60;;;10.60;62.50;;;;;;5079547;28;20071;-83
2021/05/30 05:06:08;;;;;;;2.28;1.42;;;10.70;61.60;;;;;;5092130;28;20385;-84
2021/05/30 05:09:01;;;;;;;2.42;1.52;;;10.80;60.60;;;;;;5090805;28;20038;-83
2021/05/30 05:11:46;;;;;;;2.63;1.88;;;10.80;60.60;;;;;;5079684;28;20035;-83
2021/05/30 05:14:14;;;;;;;4.93;1.90;;;10.80;60.80;;;;;;5075975;28;20036;-81
2021/05/30 05:16:45;;;;;;;2.05;1.83;;;10.90;60.90;;;;;;5094182;28;20020;-87
2021/05/30 05:22:47;;;;;;;3.20;2.00;;;11.10;60.70;;;;;;5069130;28;20047;-83
2021/05/30 05:25:40;;;;;;;1.88;1.42;;;11.30;60.40;;;;;;5081114;28;20044;-82
2021/05/30 05:28:52;;;;;;;2.92;1.70;;;11.40;59.70;;;;;;5080280;28;20036;-83
2021/05/30 05:31:42;;;;;;;3.83;2.05;;;11.70;59.40;;;;;;5102477;28;20630;-83
2021/05/30 05:34:08;;;;;;;3.05;1.70;;;11.90;59.00;;;;;;5087465;28;20043;-83
2021/05/30 05:36:34;;;;;;;3.55;1.80;;;12.10;58.90;;;;;;5075790;28;20073;-83
2021/05/30 05:39:48;;;;;;;1.67;1.35;;;12.30;58.90;;;;;;5059201;28;20102;-84
2021/05/30 05:43:15;;;;;;;2.13;1.52;;;12.40;58.10;;;;;;5095163;28;20020;-84
2021/05/30 05:46:50;;;;;;;2.05;1.52;;;12.60;56.80;;;;;;5087247;28;20051;-83
2021/05/30 05:50:07;;;;;;;5.90;1.55;;;12.50;56.50;;;;;;5042073;28;20030;-83
2021/05/30 06:00:29;;;;;;;2.90;1.98;;;12.70;56.90;;;;;;5031358;28;20072;-83
2021/05/30 06:03:55;;;;;;;3.33;2.20;;;12.80;56.60;;;;;;5038561;28;20030;-84
2021/05/30 06:07:30;;;;;;;6.53;2.33;;;13.00;55.60;;;;;;5045526;28;20137;-83
2021/05/30 06:10:52;;;;;;;3.53;2.40;;;13.20;54.30;;;;;;5031501;28;20128;-83
2021/05/30 06:14:17;;;;;;;3.97;2.13;;;13.40;53.20;;;;;;5021859;28;20037;-87
2021/05/30 06:17:42;;;;;;;3.78;2.45;;;13.60;52.30;;;;;;5036358;28;20036;-83
2021/05/30 06:20:31;;;;;;;7.00;1.90;;;13.70;51.40;;;;;;5011090;28;20073;-83
2021/05/30 06:23:52;;;;;;;4.32;2.30;;;13.80;51.70;;;;;;4939797;29;20463;-84
2021/05/30 06:27:04;;;;;;;2.88;2.30;;;13.90;51.50;;;;;;4952801;29;20448;-82
2021/05/30 06:29:54;;;;;;;3.50;1.88;;;14.00;50.90;;;;;;4955112;28;20047;-82
2021/05/30 06:32:49;;;;;;;4.20;1.95;;;14.00;50.50;;;;;;4952501;29;20388;-83
2021/05/30 06:35:24;;;;;;;5.25;2.63;;;14.10;50.20;;;;;;4959343;28;20035;-82
2021/05/30 06:38:00;;;;;;;4.05;2.30;;;14.10;50.30;;;;;;4952778;29;20509;-84
2021/05/30 06:41:19;;;;;;;5.72;2.65;;;14.00;50.20;;;;;;4987438;28;20407;-84
2021/05/30 06:43:55;;;;;;;3.00;1.98;;;14.00;50.20;;;;;;4991603;28;20038;-82
2021/05/30 06:47:05;;;;;;;2.20;1.88;;;14.10;50.10;;;;;;4991220;28;20042;-82
2021/05/30 06:49:40;;;;;;;4.30;2.30;;;14.20;49.80;;;;;;4991302;28;20049;-83
2021/05/30 06:52:08;;;;;;;3.20;2.03;;;14.20;49.50;;;;;;4991107;28;20058;-82
2021/05/30 06:54:36;;;;;;;3.38;2.10;;;14.30;49.70;;;;;;4990492;28;20081;-83
2021/05/30 06:57:33;;;;;;;3.08;1.98;;;14.30;49.60;;;;;;4990971;28;20086;-82
2021/05/30 07:00:04;;;;;;;3.55;1.70;;;14.40;49.50;;;;;;4989540;28;20038;-82
2021/05/30 07:02:32;;;;;;;2.90;2.20;;;14.60;48.90;;;;;;4992707;28;20148;-83
2021/05/30 07:05:24;;;;;;;5.20;2.17;;;14.70;48.80;;;;;;4991156;28;20047;-83
2021/05/30 07:07:59;;;;;;;3.97;1.85;;;14.80;48.60;;;;;;4975101;28;20105;-83
2021/05/30 07:10:45;;;;;;;2.05;1.77;;;15.00;48.50;;;;;;4998084;28;20124;-85
2021/05/30 07:13:28;;;;;;;3.35;1.80;;;15.00;47.50;;;;;;5062228;28;20664;-84
2021/05/30 07:16:41;;;;;;;2.33;1.90;;;15.10;47.30;;;;;;5103028;28;20423;-86
2021/05/30 07:19:55;;;;;;;3.63;1.67;;;15.30;46.70;;;;;;5070246;28;20020;-86
2021/05/30 07:22:52;;;;;;;3.25;1.90;;;15.40;47.00;;;;;;5068014;28;20140;-82
2021/05/30 07:29:16;;;;;;;2.88;1.63;;;15.80;46.70;;;;;;5074400;28;20032;-84
2021/05/30 07:31:45;;;;;;;2.22;1.55;;;15.90;45.50;;;;;;5074063;28;20107;-82
2021/05/30 07:34:16;;;;;;;1.73;1.60;;;16.10;45.40;;;;;;5057610;28;20386;-82
2021/05/30 07:36:42;;;;;;;3.92;1.73;;;16.20;44.90;;;;;;5074218;28;20024;-81
2021/05/30 07:39:18;;;;;;;2.15;1.70;;;16.30;43.90;;;;;;5055970;28;20044;-83
2021/05/30 07:41:43;;;;;;;10.57;2.35;;;16.40;43.30;;;;;;5073016;28;20021;-74
2021/05/30 07:44:09;;;;;;;2.85;1.63;;;16.50;45.40;;;;;;5073246;28;20047;-73
2021/05/30 07:46:34;;;;;;;4.30;1.88;;;16.70;47.80;;;;;;5073697;28;20024;-72
2021/05/30 07:49:00;;;;;;;6.63;2.08;;;16.80;43.70;;;;;;5075124;28;20504;-76
2021/05/30 07:51:26;;;;;;;6.13;2.65;;;17.00;44.10;;;;;;5098349;28;20068;-72
2021/05/30 07:53:52;;;;;;;4.55;1.80;;;17.10;44.40;;;;;;5116607;28;20052;-77
2021/05/30 07:56:17;;;;;;;2.30;1.08;;;17.30;43.40;;;;;;5116383;28;20387;-76
2021/05/30 07:58:43;;;;;;;3.05;1.65;;;17.30;42.60;;;;;;5116179;28;20447;-72
2021/05/30 08:01:09;;;;;;;1.55;1.30;;;17.50;42.40;;;;;;5116093;28;20020;-74
2021/05/30 08:03:34;;;;;;;2.95;1.75;;;17.60;41.00;;;;;;5115911;28;20063;-73
2021/05/30 08:06:00;;;;;;;2.15;1.63;;;17.60;40.00;;;;;;5116116;28;20084;-73
2021/05/30 08:08:26;;;;;;;2.53;1.33;;;17.50;39.80;;;;;;5115947;28;20032;-74
2021/05/30 08:10:51;;;;;;;1.58;1.40;;;17.40;40.50;;;;;;5115664;28;20103;-72
2021/05/30 08:13:17;;;;;;;2.13;1.55;;;17.40;39.60;;;;;;5115605;28;20020;-72
2021/05/30 08:15:43;;;;;;;4.15;1.67;;;17.60;39.10;;;;;;5115881;28;20040;-72
2021/05/30 08:18:08;;;;;;;3.47;1.63;;;17.70;38.60;;;;;;5115661;28;20019;-72
2021/05/30 08:20:34;;;;;;;3.47;1.60;;;17.80;38.30;;;;;;5115695;28;20032;-73
2021/05/30 08:22:59;;;;;;;3.97;1.60;;;17.80;38.00;;;;;;5115682;28;20028;-73
2021/05/30 08:25:25;;;;;;;3.00;1.75;;;17.80;38.20;;;;;;5115997;28;20027;-73
2021/05/30 08:27:52;;;;;;;2.17;1.42;;;18.00;38.40;;;;;;5115655;28;20020;-76
2021/05/30 08:30:19;;;;;;;2.70;1.60;;;18.10;38.50;;;;;;5115593;28;20018;-72
2021/05/30 08:32:45;;;;;;;1.75;1.25;;;18.30;38.70;;;;;;5115477;28;20027;-72
2021/05/30 08:35:11;;;;;;;1.17;0.90;;;18.60;37.60;;;;;;5114266;28;20023;-73
2021/05/30 08:37:41;;;;;;;2.58;1.52;;;18.70;36.80;;;;;;5115337;28;20069;-73
2021/05/30 08:40:07;;;;;;;1.40;1.27;;;18.80;35.40;;;;;;5116297;28;20027;-80
2021/05/30 08:42:33;;;;;;;1.77;1.20;;;18.90;35.20;;;;;;5116543;28;20067;-81
2021/05/30 08:44:59;;;;;;;2.33;1.45;;;18.90;34.80;;;;;;5115192;28;20032;-80
2021/05/30 08:47:25;;;;;;;1.90;1.13;;;18.90;34.00;;;;;;5115016;28;20016;-80
2021/05/30 08:49:50;;;;;;;1.95;0.60;;;18.80;33.10;;;;;;5115047;28;20039;-81
2021/05/30 08:52:17;;;;;;;1.30;0.90;;;18.70;32.80;;;;;;5114914;28;20078;-81
2021/05/30 08:54:42;;;;;;;1.85;1.23;;;18.60;32.20;;;;;;5114754;28;20032;-82
2021/05/30 08:57:08;;;;;;;2.70;1.00;;;18.70;32.00;;;;;;5096767;28;20024;-80
2021/05/30 08:59:35;;;;;;;1.70;0.90;;;18.60;31.40;;;;;;5096935;28;20559;-82
2021/05/30 09:02:12;;;;;;;1.23;0.70;;;18.40;30.00;;;;;;5096801;28;20157;-81
2021/05/30 09:04:48;;;;;;;1.52;1.10;;;18.10;29.70;;;;;;5114967;28;20558;-82
2021/05/30 09:07:14;;;;;;;3.85;1.00;;;18.20;30.30;;;;;;5114907;28;20020;-81
2021/05/30 09:09:41;;;;;;;1.20;1.10;;;18.20;30.50;;;;;;5096311;28;20032;-80
2021/05/30 09:12:16;;;;;;;2.95;1.13;;;18.30;30.30;;;;;;5114685;28;20102;-80
2021/05/30 09:14:46;;;;;;;2.25;1.30;;;18.40;29.60;;;;;;5114733;28;20030;-80
2021/05/30 09:17:12;;;;;;;2.00;1.00;;;18.40;28.80;;;;;;5114439;28;20016;-80
2021/05/30 09:19:55;;;;;;;3.10;1.10;;;18.50;29.10;;;;;;5114565;28;20479;-80
2021/05/30 09:22:40;;;;;;;3.40;1.25;;;18.40;28.60;;;;;;5114377;28;20026;-80
2021/05/30 09:25:13;;;;;;;1.20;0.88;;;18.50;28.30;;;;;;5114538;28;20016;-80
2021/05/30 09:27:47;;;;;;;2.83;1.35;;;18.40;28.10;;;;;;5114322;28;20034;-84
2021/05/30 09:30:24;;;;;;;1.33;1.10;;;18.40;27.80;;;;;;5096368;28;20020;-80
2021/05/30 09:33:12;;;;;;;3.03;1.10;;;18.30;27.70;;;;;;5114231;28;20369;-80
2021/05/30 09:35:37;;;;;;;2.28;1.20;;;18.10;27.50;;;;;;5114274;28;20015;-79
2021/05/30 09:38:21;;;;;;;2.03;1.00;;;18.20;27.50;;;;;;5114442;28;20031;-79
2021/05/30 09:40:56;;;;;;;1.90;1.30;;;18.20;28.10;;;;;;5113924;28;20024;-77
2021/05/30 09:43:28;;;;;;;2.42;1.20;;;18.10;28.10;;;;;;5113735;28;20028;-79
2021/05/30 09:45:57;;;;;;;1.73;1.38;;;18.10;28.60;;;;;;5114174;28;20027;-82
2021/05/30 09:48:23;;;;;;;2.88;1.70;;;18.20;28.80;;;;;;5096280;28;20039;-79
2021/05/30 09:51:05;;;;;;;2.95;1.25;;;18.30;29.40;;;;;;5113711;28;20031;-79
2021/05/30 09:53:43;;;;;;;2.30;1.35;;;18.20;28.90;;;;;;5114764;28;20039;-87
2021/05/30 09:56:28;;;;;;;2.80;1.38;;;18.30;29.60;;;;;;5115117;28;20476;-84
2021/05/30 09:58:54;;;;;;;3.90;1.30;;;18.40;28.80;;;;;;5114359;28;20023;-79
2021/05/30 10:01:20;;;;;;;1.73;1.40;;;18.60;29.20;;;;;;5114009;28;20024;-79
2021/05/30 10:03:46;;;;;;;5.53;1.60;;;18.70;28.80;;;;;;5113838;28;20038;-79
2021/05/30 10:06:12;;;;;;;3.92;1.55;;;18.90;28.80;;;;;;5113661;28;20024;-79
2021/05/30 10:08:38;;;;;;;1.90;1.20;;;19.00;28.70;;;;;;5113705;28;20093;-79
2021/05/30 10:11:05;;;;;;;4.60;1.80;;;19.00;28.40;;;;;;5113827;28;20030;-79
2021/05/30 10:13:31;;;;;;;1.38;1.15;;;19.20;28.40;;;;;;5113856;28;20019;-79
2021/05/30 10:15:57;;;;;;;4.30;1.60;;;19.20;28.50;;;;;;5096102;28;20422;-79
2021/05/30 10:18:47;;;;;;;1.55;1.45;;;19.40;28.50;;;;;;5113603;28;20064;-79
2021/05/30 10:21:17;;;;;;;3.25;1.63;;;19.50;28.10;;;;;;5095154;28;20085;-79
2021/05/30 10:23:46;;;;;;;4.50;1.92;;;19.60;27.90;;;;;;5113614;28;20148;-80
2021/05/30 10:26:16;;;;;;;1.90;1.23;;;19.80;28.20;;;;;;5113717;28;20020;-79
2021/05/30 10:28:55;;;;;;;4.53;2.13;;;19.90;28.00;;;;;;5113845;28;20019;-79
2021/05/30 10:31:23;;;;;;;6.35;1.48;;;19.90;27.40;;;;;;5116401;28;20024;-79
2021/05/30 10:34:12;;;;;;;1.73;1.20;;;20.00;26.60;;;;;;5122486;28;20020;-79
2021/05/30 10:36:41;;;;;;;7.85;4.53;;;20.00;26.40;;;;;;5133894;28;20483;-79
2021/05/30 10:39:28;;;;;;;4.90;2.13;;;20.10;26.70;;;;;;5107455;28;20021;-80
2021/05/30 10:42:06;;;;;;;4.38;1.92;;;20.30;27.40;;;;;;5071883;28;20107;-78
2021/05/30 10:44:50;;;;;;;4.03;1.90;;;20.30;27.40;;;;;;5076591;28;20032;-82
2021/05/30 10:47:17;;;;;;;4.50;2.08;;;20.30;26.50;;;;;;5072869;28;20075;-84
2021/05/30 10:50:20;;;;;;;2.08;1.58;;;20.30;26.70;;;;;;5072582;28;20028;-80
2021/05/30 10:52:47;;;;;;;5.00;1.77;;;20.30;26.70;;;;;;5010533;28;20064;-79
2021/05/30 10:55:12;;;;;;;2.72;1.50;;;20.40;27.00;;;;;;5060793;28;20068;-77
2021/05/30 10:57:46;;;;;;;3.10;1.73;;;20.60;27.10;;;;;;5072689;28;20033;-79
2021/05/30 11:00:20;;;;;;;1.20;1.10;;;20.60;27.00;;;;;;5076400;28;20055;-80
2021/05/30 11:03:08;;;;;;;3.10;1.40;;;20.60;26.60;;;;;;5076359;28;20070;-80
2021/05/30 11:05:50;;;;;;;2.35;1.63;;;20.80;26.60;;;;;;5076325;28;20027;-80
2021/05/30 11:08:31;;;;;;;2.63;1.25;;;20.80;26.10;;;;;;5076410;28;20419;-81
2021/05/30 11:11:19;;;;;;;6.10;2.05;;;20.90;25.40;;;;;;5076515;28;20027;-82
2021/05/30 11:14:09;;;;;;;2.03;1.33;;;21.10;26.30;;;;;;5076404;28;20044;-81
2021/05/30 11:16:40;;;;;;;5.38;2.10;;;21.30;26.20;;;;;;5058420;28;20377;-81
2021/05/30 11:19:09;;;;;;;2.25;1.45;;;21.30;25.30;;;;;;5076572;28;20392;-80
2021/05/30 11:21:44;;;;;;;5.22;1.70;;;21.50;25.10;;;;;;5076187;28;20021;-80
2021/05/30 11:24:16;;;;;;;2.55;1.50;;;21.50;24.80;;;;;;5076191;28;20033;-82
2021/05/30 11:26:59;;;;;;;2.15;1.52;;;21.70;24.30;;;;;;5075962;28;20024;-83
2021/05/30 11:29:25;;;;;;;3.88;1.70;;;21.80;24.10;;;;;;5075989;28;20027;-81
2021/05/30 11:31:51;;;;;;;2.15;1.20;;;21.90;24.30;;;;;;5075963;28;20070;-79
2021/05/30 11:34:18;;;;;;;5.85;2.03;;;21.80;23.80;;;;;;5075923;28;20500;-79
2021/05/30 11:36:44;;;;;;;2.00;1.40;;;21.80;23.80;;;;;;5075842;28;20035;-79
2021/05/30 11:39:12;;;;;;;5.32;2.22;;;22.00;23.70;;;;;;5075800;28;20100;-81
2021/05/30 11:41:39;;;;;;;4.00;1.48;;;22.10;23.60;;;;;;5057770;28;20498;-82
2021/05/30 11:44:07;;;;;;;4.40;1.70;;;22.30;23.60;;;;;;5075668;28;20039;-81
2021/05/30 11:46:36;;;;;;;5.80;1.85;;;22.30;23.30;;;;;;5075748;28;20016;-78
2021/05/30 11:49:06;;;;;;;4.05;1.50;;;22.30;23.00;;;;;;5075963;28;20024;-84
2021/05/30 11:51:50;;;;;;;2.20;1.60;;;22.40;23.10;;;;;;5079281;28;20527;-81
2021/05/30 11:54:17;;;;;;;3.53;1.30;;;22.30;22.90;;;;;;5057853;28;20054;-82
2021/05/30 11:56:44;;;;;;;3.92;1.80;;;22.40;23.00;;;;;;5075588;28;20029;-79
2021/05/30 11:59:10;;;;;;;2.88;1.67;;;22.30;22.70;;;;;;5082080;28;20051;-78
2021/05/30 12:01:43;;;;;;;3.00;1.80;;;22.20;22.70;;;;;;5094488;28;20427;-80
2021/05/30 12:04:22;;;;;;;6.20;1.70;;;22.20;22.50;;;;;;5095184;28;20032;-80
2021/05/30 12:06:49;;;;;;;2.53;1.80;;;22.20;22.90;;;;;;5094424;28;20654;-81
2021/05/30 12:09:15;;;;;;;2.33;1.65;;;22.30;23.70;;;;;;5093856;28;20051;-77
2021/05/30 12:11:41;;;;;;;3.33;1.92;;;22.50;23.80;;;;;;5089444;28;20097;-77
2021/05/30 12:14:07;;;;;;;3.05;1.50;;;22.70;23.60;;;;;;5115639;28;20095;-78
2021/05/30 12:16:33;;;;;;;2.92;1.80;;;22.90;23.50;;;;;;5116888;28;20024;-78
2021/05/30 12:19:02;;;;;;;6.00;1.63;;;22.90;23.50;;;;;;5120954;28;20019;-78
2021/05/30 12:21:39;;;;;;;3.60;1.50;;;22.80;23.10;;;;;;5117593;28;20475;-78
2021/05/30 12:24:09;;;;;;;3.70;1.80;;;23.00;23.60;;;;;;5116109;28;20043;-80
2021/05/30 12:26:36;;;;;;;2.20;1.40;;;23.10;23.90;;;;;;5115452;28;20059;-79
2021/05/30 12:29:02;;;;;;;3.58;1.40;;;23.40;23.50;;;;;;5115779;28;20027;-76
2021/05/30 12:31:27;;;;;;;3.67;1.70;;;23.70;23.40;;;;;;5115652;28;20027;-78
2021/05/30 12:34:01;;;;;;;5.28;1.75;;;23.70;22.60;;;;;;5116382;28;20095;-76
2021/05/30 12:36:50;;;;;;;2.65;2.10;;;23.80;22.50;;;;;;5115626;28;20050;-80
2021/05/30 12:39:16;;;;;;;2.80;1.90;;;23.70;23.00;;;;;;5115318;28;20068;-79
2021/05/30 12:41:46;;;;;;;2.38;1.70;;;23.70;23.10;;;;;;5115178;28;20077;-78
2021/05/30 12:44:17;;;;;;;3.65;1.90;;;23.70;22.80;;;;;;5115181;28;20035;-80
2021/05/30 12:47:01;;;;;;;2.95;1.55;;;23.80;22.40;;;;;;5114928;28;20020;-81
2021/05/30 12:49:27;;;;;;;3.97;1.63;;;24.00;22.30;;;;;;5096972;28;20027;-81
2021/05/30 12:52:08;;;;;;;3.05;1.70;;;24.00;22.10;;;;;;5098118;28;20058;-80
2021/05/30 12:54:38;;;;;;;4.28;1.30;;;24.00;21.80;;;;;;5114778;28;20157;-81
2021/05/30 12:57:04;;;;;;;2.38;1.52;;;24.10;21.80;;;;;;5114678;28;20062;-80
2021/05/30 12:59:32;;;;;;;4.88;1.70;;;24.00;22.20;;;;;;5114672;28;20031;-81
2021/05/30 13:01:58;;;;;;;4.65;1.60;;;24.10;23.70;;;;;;5114551;28;20015;-80
2021/05/30 13:04:28;;;;;;;6.47;2.05;;;24.20;22.70;;;;;;5114390;28;20032;-78
2021/05/30 13:07:08;;;;;;;2.63;1.85;;;24.20;22.70;;;;;;5114534;28;20035;-78
2021/05/30 13:10:00;;;;;;;2.58;1.60;;;24.30;22.80;;;;;;5114408;28;20022;-79
2021/05/30 13:12:43;;;;;;;2.88;2.00;;;24.30;22.70;;;;;;5114363;28;20027;-79
2021/05/30 13:15:18;;;;;;;4.63;1.63;;;24.30;22.60;;;;;;5114587;28;20038;-82
2021/05/30 13:18:09;;;;;;;3.80;1.70;;;24.40;21.90;;;;;;5114335;28;20042;-81
2021/05/30 13:20:38;;;;;;;3.15;1.45;;;24.30;20.80;;;;;;5113749;28;20475;-81
2021/05/30 13:23:15;;;;;;;2.97;1.40;;;24.50;21.00;;;;;;5114306;28;20023;-81
2021/05/30 13:25:43;;;;;;;4.45;1.70;;;24.60;21.30;;;;;;5095878;28;20030;-73
2021/05/30 13:28:25;;;;;;;3.95;1.98;;;24.60;21.50;;;;;;5114278;28;20030;-77
2021/05/30 13:31:12;;;;;;;4.05;2.03;;;24.10;21.80;;;;;;5114136;28;20371;-76
2021/05/30 13:33:40;;;;;;;2.30;1.45;;;23.60;21.80;;;;;;5114072;28;20020;-77
2021/05/30 13:36:07;;;;;;;4.43;2.05;;;23.40;22.00;;;;;;5113895;28;20034;-77
2021/05/30 13:38:34;;;;;;;3.58;1.90;;;23.20;22.50;;;;;;5113624;28;20027;-76
2021/05/30 13:41:00;;;;;;;2.92;1.80;;;23.30;21.90;;;;;;5113737;28;20051;-78
2021/05/30 13:43:28;;;;;;;2.80;1.67;;;23.60;22.10;;;;;;5113645;28;20084;-81